createdAt,value
2022-12-06T00:00:51.740Z,87.97
2022-12-06T00:01:51.775Z,88.18
2022-12-06T00:02:51.764Z,88.18
2022-12-06T00:03:51.702Z,88.18
2022-12-06T00:04:51.743Z,87.49
2022-12-06T00:05:51.694Z,88.22
2022-12-06T00:06:51.704Z,87.91
2022-12-06T00:07:51.733Z,88.01
2022-12-06T00:08:51.649Z,87.60
2022-12-06T00:09:51.636Z,88.22
2022-12-06T00:10:51.660Z,88.49
2022-12-06T00:11:51.619Z,87.97
2022-12-06T00:12:51.624Z,88.49
2022-12-06T00:13:51.620Z,87.66
2022-12-06T00:14:51.619Z,88.18
2022-12-06T00:15:51.585Z,87.87
2022-12-06T00:16:51.633Z,87.35
2022-12-06T00:17:51.594Z,87.66
2022-12-06T00:18:51.557Z,87.76
2022-12-06T00:19:51.545Z,87.76
2022-12-06T00:20:51.534Z,87.46
2022-12-06T00:21:51.538Z,87.31
2022-12-06T00:22:51.525Z,86.32
2022-12-06T00:23:51.508Z,85.70
2022-12-06T00:24:51.493Z,86.36
2022-12-06T00:25:51.472Z,86.57
2022-12-06T00:26:51.510Z,87.33
2022-12-06T00:27:51.461Z,87.70
2022-12-06T00:28:51.454Z,87.39
2022-12-06T00:29:51.438Z,87.49
2022-12-06T00:30:51.462Z,87.49
2022-12-06T00:31:51.600Z,87.70
2022-12-06T00:32:51.884Z,87.70
2022-12-06T00:33:51.399Z,88.12
2022-12-06T00:34:51.895Z,87.91
2022-12-06T00:35:51.402Z,87.25
2022-12-06T00:36:51.373Z,86.94
2022-12-06T00:37:51.344Z,86.46
2022-12-06T00:38:51.342Z,86.60
2022-12-06T00:39:51.321Z,86.19
2022-12-06T00:40:51.341Z,86.67
2022-12-06T00:41:51.314Z,86.71
2022-12-06T00:42:51.313Z,87.02
2022-12-06T00:43:51.288Z,87.33
2022-12-06T00:44:51.271Z,87.54
2022-12-06T00:45:51.330Z,87.91
2022-12-06T00:46:51.298Z,87.74
2022-12-06T00:47:51.248Z,88.12
2022-12-06T00:48:51.237Z,88.01
2022-12-06T00:49:51.248Z,87.56
2022-12-06T00:50:51.222Z,87.08
2022-12-06T00:51:51.196Z,87.60
2022-12-06T00:52:51.190Z,87.35
2022-12-06T00:53:51.197Z,87.15
2022-12-06T00:54:51.194Z,87.46
2022-12-06T00:55:51.168Z,87.46
2022-12-06T00:56:51.146Z,87.76
2022-12-06T00:57:51.137Z,86.90
2022-12-06T00:58:51.133Z,86.49
2022-12-06T00:59:51.125Z,86.59
2022-12-06T01:00:51.247Z,85.55
2022-12-06T01:01:51.158Z,86.28
2022-12-06T01:02:51.170Z,85.76
2022-12-06T01:03:51.109Z,85.97
2022-12-06T01:04:51.065Z,85.04
2022-12-06T01:05:51.066Z,85.24
2022-12-06T01:06:51.071Z,84.94
2022-12-06T01:07:51.103Z,84.77
2022-12-06T01:08:51.026Z,84.31
2022-12-06T01:09:51.013Z,85.04
2022-12-06T01:10:51.009Z,84.63
2022-12-06T01:11:51.003Z,84.63
2022-12-06T01:12:50.979Z,84.94
2022-12-06T01:13:50.962Z,85.04
2022-12-06T01:14:50.964Z,85.35
2022-12-06T01:15:50.945Z,85.04
2022-12-06T01:16:50.957Z,84.83
2022-12-06T01:17:50.946Z,84.42
2022-12-06T01:18:50.937Z,83.90
2022-12-06T01:19:50.904Z,84.00
2022-12-06T01:20:50.896Z,84.21
2022-12-06T01:21:50.884Z,84.42
2022-12-06T01:22:50.877Z,85.04
2022-12-06T01:23:50.908Z,84.63
2022-12-06T01:24:50.869Z,84.21
2022-12-06T01:25:50.847Z,84.45
2022-12-06T01:26:50.849Z,84.00
2022-12-06T01:27:50.821Z,84.31
2022-12-06T01:28:50.828Z,84.42
2022-12-06T01:29:50.797Z,84.42
2022-12-06T01:30:50.840Z,84.11
2022-12-06T01:31:50.780Z,83.70
2022-12-06T01:32:50.764Z,84.00
2022-12-06T01:33:50.758Z,84.36
2022-12-06T01:34:50.789Z,84.63
2022-12-06T01:35:50.753Z,84.63
2022-12-06T01:36:50.731Z,84.56
2022-12-06T01:37:50.721Z,84.21
2022-12-06T01:38:50.703Z,84.42
2022-12-06T01:39:50.716Z,84.25
2022-12-06T01:40:50.689Z,84.21
2022-12-06T01:41:50.668Z,84.42
2022-12-06T01:42:50.659Z,84.11
2022-12-06T01:43:50.673Z,84.11
2022-12-06T01:44:50.659Z,83.49
2022-12-06T01:45:50.715Z,83.49
2022-12-06T01:46:50.628Z,84.00
2022-12-06T01:47:50.617Z,83.80
2022-12-06T01:48:50.600Z,83.70
2022-12-06T01:49:50.593Z,83.49
2022-12-06T01:50:50.618Z,84.00
2022-12-06T01:51:50.590Z,84.11
2022-12-06T01:52:50.560Z,83.80
2022-12-06T01:53:50.545Z,83.18
2022-12-06T01:54:50.531Z,83.18
2022-12-06T01:55:50.519Z,83.18
2022-12-06T01:56:50.515Z,82.76
2022-12-06T01:57:50.523Z,83.22
2022-12-06T01:58:50.526Z,83.94
2022-12-06T01:59:50.490Z,84.05
2022-12-06T02:00:50.469Z,83.94
2022-12-06T02:01:50.558Z,83.53
2022-12-06T02:02:50.498Z,83.80
2022-12-06T02:03:50.450Z,83.90
2022-12-06T02:04:50.464Z,83.70
2022-12-06T02:05:50.424Z,83.70
2022-12-06T02:06:51.397Z,83.70
2022-12-06T02:07:50.468Z,83.49
2022-12-06T02:08:50.423Z,84.00
2022-12-06T02:09:50.394Z,83.80
2022-12-06T02:10:50.379Z,83.90
2022-12-06T02:11:50.363Z,84.42
2022-12-06T02:12:50.353Z,84.31
2022-12-06T02:13:50.361Z,84.05
2022-12-06T02:14:50.333Z,84.05
2022-12-06T02:15:50.320Z,83.53
2022-12-06T02:16:50.392Z,83.63
2022-12-06T02:17:50.296Z,83.32
2022-12-06T02:18:50.280Z,83.01
2022-12-06T02:19:50.282Z,83.32
2022-12-06T02:20:50.267Z,83.25
2022-12-06T02:21:50.260Z,83.67
2022-12-06T02:22:50.254Z,84.29
2022-12-06T02:23:50.227Z,83.77
2022-12-06T02:24:50.226Z,83.77
2022-12-06T02:25:50.225Z,83.77
2022-12-06T02:26:50.204Z,84.19
2022-12-06T02:27:50.189Z,83.77
2022-12-06T02:28:50.174Z,84.81
2022-12-06T02:29:50.182Z,85.02
2022-12-06T02:30:50.265Z,85.11
2022-12-06T02:31:50.163Z,84.91
2022-12-06T02:32:54.690Z,83.87
2022-12-06T02:33:51.120Z,84.39
2022-12-06T02:34:50.106Z,84.19
2022-12-06T02:35:50.098Z,84.81
2022-12-06T02:36:50.112Z,84.87
2022-12-06T02:37:50.098Z,83.84
2022-12-06T02:38:50.102Z,84.36
2022-12-06T02:39:50.066Z,84.36
2022-12-06T02:40:50.048Z,84.11
2022-12-06T02:41:50.090Z,84.11
2022-12-06T02:42:50.032Z,83.63
2022-12-06T02:43:50.023Z,83.42
2022-12-06T02:44:50.017Z,84.31
2022-12-06T02:45:50.061Z,83.18
2022-12-06T02:46:49.983Z,83.39
2022-12-06T02:47:49.984Z,82.70
2022-12-06T02:48:49.970Z,82.70
2022-12-06T02:49:49.952Z,83.22
2022-12-06T02:50:49.948Z,83.11
2022-12-06T02:51:49.929Z,83.11
2022-12-06T02:52:49.937Z,83.15
2022-12-06T02:53:49.917Z,84.19
2022-12-06T02:54:49.914Z,84.08
2022-12-06T02:55:49.896Z,83.87
2022-12-06T02:56:49.891Z,83.36
2022-12-06T02:57:49.884Z,83.98
2022-12-06T02:58:49.864Z,83.77
2022-12-06T02:59:49.843Z,84.08
2022-12-06T03:00:49.843Z,84.19
2022-12-06T03:01:49.930Z,84.29
2022-12-06T03:02:49.880Z,84.05
2022-12-06T03:03:49.809Z,84.25
2022-12-06T03:04:49.838Z,84.05
2022-12-06T03:05:49.782Z,84.15
2022-12-06T03:06:49.779Z,83.11
2022-12-06T03:07:49.808Z,82.50
2022-12-06T03:08:49.767Z,82.60
2022-12-06T03:09:49.749Z,83.07
2022-12-06T03:10:49.782Z,83.28
2022-12-06T03:11:49.728Z,83.28
2022-12-06T03:12:49.717Z,83.28
2022-12-06T03:13:49.742Z,82.76
2022-12-06T03:14:49.688Z,82.66
2022-12-06T03:15:49.727Z,82.56
2022-12-06T03:16:49.668Z,82.25
2022-12-06T03:17:49.670Z,82.04
2022-12-06T03:18:49.664Z,82.76
2022-12-06T03:19:49.655Z,82.35
2022-12-06T03:20:49.628Z,82.25
2022-12-06T03:21:49.614Z,82.76
2022-12-06T03:22:49.609Z,82.56
2022-12-06T03:23:49.599Z,82.76
2022-12-06T03:24:49.607Z,82.04
2022-12-06T03:25:49.594Z,82.45
2022-12-06T03:26:49.585Z,82.35
2022-12-06T03:27:49.550Z,82.35
2022-12-06T03:28:49.542Z,81.94
2022-12-06T03:29:49.542Z,81.63
2022-12-06T03:30:49.561Z,82.45
2022-12-06T03:31:49.524Z,82.76
2022-12-06T03:32:49.520Z,82.80
2022-12-06T03:33:49.498Z,82.45
2022-12-06T03:34:49.491Z,82.45
2022-12-06T03:35:49.467Z,82.87
2022-12-06T03:36:49.473Z,82.56
2022-12-06T03:37:49.446Z,82.39
2022-12-06T03:38:49.440Z,82.18
2022-12-06T03:39:49.437Z,82.70
2022-12-06T03:40:49.427Z,82.60
2022-12-06T03:41:49.429Z,83.11
2022-12-06T03:42:49.423Z,82.97
2022-12-06T03:43:49.386Z,82.45
2022-12-06T03:44:49.378Z,82.18
2022-12-06T03:45:49.469Z,82.18
2022-12-06T03:46:49.415Z,82.80
2022-12-06T03:47:49.360Z,83.01
2022-12-06T03:48:49.341Z,82.90
2022-12-06T03:49:49.328Z,83.22
2022-12-06T03:50:52.903Z,83.53
2022-12-06T03:51:50.302Z,83.42
2022-12-06T03:52:49.303Z,82.80
2022-12-06T03:53:49.292Z,82.70
2022-12-06T03:54:49.271Z,82.74
2022-12-06T03:55:49.255Z,83.15
2022-12-06T03:56:49.248Z,83.67
2022-12-06T03:57:49.247Z,83.87
2022-12-06T03:58:49.271Z,83.77
2022-12-06T03:59:49.215Z,83.01
2022-12-06T04:00:49.204Z,83.22
2022-12-06T04:01:49.323Z,83.42
2022-12-06T04:02:49.184Z,83.32
2022-12-06T04:03:49.225Z,82.95
2022-12-06T04:04:49.172Z,82.95
2022-12-06T04:05:49.158Z,84.08
2022-12-06T04:06:49.137Z,83.77
2022-12-06T04:07:49.177Z,84.19
2022-12-06T04:08:49.124Z,83.46
2022-12-06T04:09:49.105Z,83.73
2022-12-06T04:10:49.115Z,83.77
2022-12-06T04:11:49.089Z,83.77
2022-12-06T04:12:49.084Z,84.19
2022-12-06T04:13:49.089Z,83.77
2022-12-06T04:14:49.078Z,83.87
2022-12-06T04:15:49.102Z,83.98
2022-12-06T04:16:49.037Z,84.19
2022-12-06T04:17:49.036Z,83.98
2022-12-06T04:18:49.018Z,83.36
2022-12-06T04:19:52.045Z,83.81
2022-12-06T04:20:48.992Z,83.87
2022-12-06T04:21:48.987Z,83.77
2022-12-06T04:22:48.978Z,83.87
2022-12-06T04:23:48.978Z,83.77
2022-12-06T04:24:48.946Z,83.87
2022-12-06T04:25:49.001Z,83.87
2022-12-06T04:26:48.975Z,83.56
2022-12-06T04:27:48.919Z,83.46
2022-12-06T04:28:48.924Z,83.67
2022-12-06T04:29:48.924Z,84.19
2022-12-06T04:30:48.900Z,83.94
2022-12-06T04:31:48.963Z,83.15
2022-12-06T04:32:48.949Z,82.84
2022-12-06T04:33:48.859Z,83.36
2022-12-06T04:34:48.857Z,83.56
2022-12-06T04:35:48.830Z,83.46
2022-12-06T04:36:48.839Z,84.29
2022-12-06T04:37:48.813Z,83.25
2022-12-06T04:38:48.816Z,83.87
2022-12-06T04:39:48.810Z,83.05
2022-12-06T04:40:48.786Z,82.84
2022-12-06T04:41:48.783Z,83.25
2022-12-06T04:42:48.766Z,83.25
2022-12-06T04:43:48.750Z,83.05
2022-12-06T04:44:48.768Z,83.25
2022-12-06T04:45:48.734Z,83.01
2022-12-06T04:46:48.779Z,82.90
2022-12-06T04:47:48.732Z,83.01
2022-12-06T04:48:48.692Z,82.60
2022-12-06T04:49:48.693Z,82.08
2022-12-06T04:50:48.676Z,82.29
2022-12-06T04:51:48.667Z,82.50
2022-12-06T04:52:48.664Z,82.80
2022-12-06T04:53:48.639Z,82.80
2022-12-06T04:54:48.662Z,82.90
2022-12-06T04:55:48.629Z,82.80
2022-12-06T04:56:48.613Z,82.60
2022-12-06T04:57:48.605Z,82.60
2022-12-06T04:58:48.607Z,82.29
2022-12-06T04:59:48.581Z,82.18
2022-12-06T05:00:48.643Z,82.39
2022-12-06T05:01:48.568Z,82.25
2022-12-06T05:02:48.643Z,82.25
2022-12-06T05:03:48.584Z,81.73
2022-12-06T05:04:48.521Z,81.73
2022-12-06T05:05:48.512Z,81.63
2022-12-06T05:06:48.523Z,81.63
2022-12-06T05:07:48.550Z,81.42
2022-12-06T05:08:48.504Z,81.25
2022-12-06T05:09:48.476Z,81.46
2022-12-06T05:10:48.513Z,81.67
2022-12-06T05:11:48.464Z,81.67
2022-12-06T05:12:48.437Z,81.67
2022-12-06T05:13:48.427Z,81.46
2022-12-06T05:14:48.421Z,81.56
2022-12-06T05:15:48.437Z,81.56
2022-12-06T05:16:48.544Z,81.25
2022-12-06T05:17:48.398Z,81.67
2022-12-06T05:18:48.397Z,81.35
2022-12-06T05:19:48.371Z,80.94
2022-12-06T05:20:48.384Z,81.19
2022-12-06T05:21:48.363Z,81.70
2022-12-06T05:22:48.339Z,81.49
2022-12-06T05:23:48.324Z,81.81
2022-12-06T05:24:48.344Z,81.91
2022-12-06T05:25:48.462Z,81.70
2022-12-06T05:26:48.290Z,81.49
2022-12-06T05:27:48.293Z,81.81
2022-12-06T05:28:48.270Z,82.88
2022-12-06T05:29:48.263Z,81.95
2022-12-06T05:30:48.259Z,82.64
2022-12-06T05:31:48.413Z,82.22
2022-12-06T05:32:52.544Z,82.32
2022-12-06T05:33:49.225Z,82.78
2022-12-06T05:34:48.230Z,82.32
2022-12-06T05:35:48.196Z,82.64
2022-12-06T05:36:48.190Z,82.64
2022-12-06T05:37:48.174Z,82.12
2022-12-06T05:38:51.311Z,82.43
2022-12-06T05:39:48.168Z,82.74
2022-12-06T05:40:48.148Z,82.64
2022-12-06T05:41:48.144Z,82.18
2022-12-06T05:42:48.120Z,82.29
2022-12-06T05:43:48.129Z,81.67
2022-12-06T05:44:48.112Z,81.35
2022-12-06T05:45:48.129Z,81.25
2022-12-06T05:46:48.079Z,81.77
2022-12-06T05:47:48.101Z,81.87
2022-12-06T05:48:48.076Z,81.56
2022-12-06T05:49:48.075Z,81.87
2022-12-06T05:50:48.071Z,81.25
2022-12-06T05:51:48.041Z,81.42
2022-12-06T05:52:48.017Z,81.52
2022-12-06T05:53:48.002Z,81.52
2022-12-06T05:54:48.014Z,81.11
2022-12-06T05:55:48.001Z,81.01
2022-12-06T05:56:47.984Z,81.52
2022-12-06T05:57:47.965Z,80.29
2022-12-06T05:58:47.961Z,80.60
2022-12-06T05:59:57.200Z,80.80
2022-12-06T06:00:47.936Z,80.80
2022-12-06T06:01:47.983Z,80.49
2022-12-06T06:02:48.059Z,80.70
2022-12-06T06:03:48.183Z,80.70
2022-12-06T06:04:47.913Z,80.90
2022-12-06T06:05:47.884Z,80.90
2022-12-06T06:06:47.886Z,80.70
2022-12-06T06:07:47.904Z,80.46
2022-12-06T06:08:47.842Z,80.66
2022-12-06T06:09:47.866Z,80.76
2022-12-06T06:10:47.826Z,80.87
2022-12-06T06:11:47.811Z,80.46
2022-12-06T06:12:47.804Z,79.73
2022-12-06T06:13:47.796Z,79.87
2022-12-06T06:14:47.788Z,80.90
2022-12-06T06:15:47.781Z,81.01
2022-12-06T06:16:47.811Z,80.80
2022-12-06T06:17:47.750Z,81.32
2022-12-06T06:18:47.747Z,81.05
2022-12-06T06:19:51.426Z,81.32
2022-12-06T06:20:47.720Z,81.21
2022-12-06T06:21:47.727Z,81.21
2022-12-06T06:22:47.722Z,81.42
2022-12-06T06:23:47.690Z,81.73
2022-12-06T06:24:47.693Z,80.76
2022-12-06T06:25:47.684Z,80.66
2022-12-06T06:26:48.002Z,81.18
2022-12-06T06:27:47.649Z,80.66
2022-12-06T06:28:47.634Z,80.25
2022-12-06T06:29:47.631Z,79.83
2022-12-06T06:30:47.624Z,79.42
2022-12-06T06:31:47.761Z,79.77
2022-12-06T06:32:47.600Z,80.08
2022-12-06T06:33:47.581Z,79.77
2022-12-06T06:34:47.571Z,80.35
2022-12-06T06:35:47.567Z,80.29
2022-12-06T06:36:47.549Z,79.46
2022-12-06T06:37:47.568Z,79.91
2022-12-06T06:38:47.548Z,80.90
2022-12-06T06:39:47.524Z,80.90
2022-12-06T06:40:47.510Z,80.80
2022-12-06T06:41:47.500Z,80.70
2022-12-06T06:42:47.500Z,80.70
2022-12-06T06:43:47.491Z,80.76
2022-12-06T06:44:47.468Z,80.70
2022-12-06T06:45:47.524Z,81.01
2022-12-06T06:46:47.450Z,80.97
2022-12-06T06:47:47.451Z,80.76
2022-12-06T06:48:47.427Z,81.21
2022-12-06T06:49:47.413Z,81.07
2022-12-06T06:50:48.163Z,80.76
2022-12-06T06:51:47.390Z,80.80
2022-12-06T06:52:47.402Z,80.90
2022-12-06T06:53:47.375Z,80.80
2022-12-06T06:54:47.377Z,80.60
2022-12-06T06:55:47.372Z,80.49
2022-12-06T06:56:47.347Z,80.94
2022-12-06T06:57:47.359Z,80.74
2022-12-06T06:58:47.324Z,81.56
2022-12-06T06:59:47.313Z,81.46
2022-12-06T07:00:47.299Z,81.67
2022-12-06T07:01:47.423Z,81.77
2022-12-06T07:02:47.364Z,81.15
2022-12-06T07:03:47.316Z,81.19
2022-12-06T07:04:47.270Z,82.05
2022-12-06T07:05:47.252Z,82.74
2022-12-06T07:06:47.242Z,82.78
2022-12-06T07:07:47.316Z,82.22
2022-12-06T07:08:47.238Z,82.32
2022-12-06T07:09:47.245Z,82.36
2022-12-06T07:10:47.208Z,82.32
2022-12-06T07:11:47.188Z,82.95
2022-12-06T07:12:47.178Z,82.70
2022-12-06T07:13:52.502Z,82.95
2022-12-06T07:14:48.417Z,82.18
2022-12-06T07:15:47.147Z,82.39
2022-12-06T07:16:47.168Z,82.70
2022-12-06T07:17:47.116Z,82.45
2022-12-06T07:18:47.113Z,83.59
2022-12-06T07:19:47.095Z,84.42
2022-12-06T07:20:47.104Z,84.38
2022-12-06T07:21:47.079Z,83.04
2022-12-06T07:22:47.073Z,83.41
2022-12-06T07:23:47.052Z,83.20
2022-12-06T07:24:52.207Z,81.45
2022-12-06T07:25:48.063Z,79.59
2022-12-06T07:26:47.064Z,79.42
2022-12-06T07:27:47.016Z,79.42
2022-12-06T07:28:47.009Z,79.52
2022-12-06T07:29:46.995Z,79.63
2022-12-06T07:30:47.012Z,79.87
2022-12-06T07:31:46.989Z,79.97
2022-12-06T07:32:46.959Z,80.18
2022-12-06T07:33:46.955Z,80.08
2022-12-06T07:34:46.944Z,80.56
2022-12-06T07:36:11.304Z,80.39
2022-12-06T07:36:47.934Z,79.97
2022-12-06T07:37:46.902Z,79.97
2022-12-06T07:38:46.903Z,80.04
2022-12-06T07:39:46.885Z,80.08
2022-12-06T07:41:47.868Z,79.77
2022-12-06T07:42:46.888Z,79.87
2022-12-06T07:43:46.854Z,80.39
2022-12-06T07:44:46.841Z,80.29
2022-12-06T07:45:46.916Z,80.15
2022-12-06T07:46:46.815Z,79.91
2022-12-06T07:47:46.825Z,79.77
2022-12-06T07:48:46.798Z,80.53
2022-12-06T07:49:46.787Z,81.25
2022-12-06T07:50:46.770Z,80.74
2022-12-06T07:51:46.767Z,81.15
2022-12-06T07:52:46.781Z,81.25
2022-12-06T07:53:46.733Z,81.25
2022-12-06T07:54:46.763Z,80.77
2022-12-06T07:55:46.724Z,81.39
2022-12-06T07:56:46.704Z,81.70
2022-12-06T07:57:46.705Z,81.60
2022-12-06T07:58:46.716Z,82.12
2022-12-06T07:59:46.684Z,82.64
2022-12-06T08:00:46.668Z,82.46
2022-12-06T08:01:46.750Z,82.43
2022-12-06T08:02:46.650Z,82.95
2022-12-06T08:03:46.646Z,82.29
2022-12-06T08:04:46.680Z,82.08
2022-12-06T08:05:46.637Z,81.81
2022-12-06T08:06:46.597Z,81.46
2022-12-06T08:07:46.621Z,81.56
2022-12-06T08:08:46.589Z,81.67
2022-12-06T08:09:46.596Z,81.67
2022-12-06T08:10:46.602Z,81.46
2022-12-06T08:11:46.545Z,81.56
2022-12-06T08:12:46.544Z,81.56
2022-12-06T08:13:46.534Z,81.46
2022-12-06T08:14:46.533Z,81.56
2022-12-06T08:15:46.625Z,81.73
2022-12-06T08:16:46.493Z,81.73
2022-12-06T08:17:46.517Z,81.32
2022-12-06T08:18:46.494Z,81.11
2022-12-06T08:19:46.468Z,80.70
2022-12-06T08:20:46.453Z,80.90
2022-12-06T08:21:46.448Z,80.70
2022-12-06T08:22:46.431Z,80.80
2022-12-06T08:23:46.451Z,80.80
2022-12-06T08:24:46.409Z,80.70
2022-12-06T08:25:46.415Z,79.97
2022-12-06T08:26:46.398Z,80.29
2022-12-06T08:27:46.384Z,81.11
2022-12-06T08:28:46.369Z,81.18
2022-12-06T08:29:46.391Z,80.56
2022-12-06T08:30:46.433Z,80.25
2022-12-06T08:31:46.436Z,80.15
2022-12-06T08:32:46.329Z,79.83
2022-12-06T08:33:46.321Z,79.69
2022-12-06T08:34:46.327Z,79.59
2022-12-06T08:35:46.302Z,79.80
2022-12-06T08:36:46.288Z,79.49
2022-12-06T08:37:46.272Z,78.97
2022-12-06T08:38:46.261Z,78.97
2022-12-06T08:39:46.277Z,78.63
2022-12-06T08:40:46.238Z,78.66
2022-12-06T08:41:46.242Z,79.18
2022-12-06T08:42:46.221Z,78.56
2022-12-06T08:43:46.245Z,79.28
2022-12-06T08:44:46.205Z,78.56
2022-12-06T08:45:46.224Z,78.87
2022-12-06T08:46:46.261Z,78.97
2022-12-06T08:47:46.172Z,78.94
2022-12-06T08:48:46.152Z,78.87
2022-12-06T08:49:46.146Z,78.42
2022-12-06T08:50:46.180Z,78.56
2022-12-06T08:51:46.122Z,78.52
2022-12-06T08:52:46.113Z,78.56
2022-12-06T08:53:46.115Z,78.11
2022-12-06T08:54:46.093Z,78.14
2022-12-06T08:55:46.092Z,78.11
2022-12-06T08:56:46.127Z,78.31
2022-12-06T08:57:46.063Z,78.31
2022-12-06T08:58:46.057Z,77.84
2022-12-06T08:59:46.046Z,77.80
2022-12-06T09:00:46.036Z,78.56
2022-12-06T09:01:46.066Z,78.14
2022-12-06T09:02:46.074Z,78.35
2022-12-06T09:03:45.997Z,78.56
2022-12-06T09:04:46.089Z,78.59
2022-12-06T09:05:45.973Z,78.70
2022-12-06T09:06:46.001Z,79.01
2022-12-06T09:07:46.058Z,79.32
2022-12-06T09:08:45.946Z,79.38
2022-12-06T09:09:45.932Z,78.97
2022-12-06T09:10:45.931Z,78.97
2022-12-06T09:11:45.938Z,78.87
2022-12-06T09:12:45.926Z,78.77
2022-12-06T09:13:45.886Z,78.66
2022-12-06T09:14:45.889Z,78.35
2022-12-06T09:15:45.882Z,78.52
2022-12-06T09:16:45.893Z,78.66
2022-12-06T09:17:45.859Z,78.83
2022-12-06T09:18:45.855Z,78.52
2022-12-06T09:19:45.836Z,77.73
2022-12-06T09:20:45.821Z,78.31
2022-12-06T09:21:45.803Z,78.25
2022-12-06T09:22:45.849Z,78.31
2022-12-06T09:23:45.789Z,78.11
2022-12-06T09:24:45.779Z,78.21
2022-12-06T09:25:45.766Z,78.31
2022-12-06T09:26:45.766Z,78.01
2022-12-06T09:27:45.772Z,77.59
2022-12-06T09:28:45.733Z,77.18
2022-12-06T09:29:45.718Z,76.77
2022-12-06T09:30:45.771Z,77.49
2022-12-06T09:31:45.764Z,78.01
2022-12-06T09:32:45.726Z,77.91
2022-12-06T09:33:45.709Z,77.91
2022-12-06T09:34:45.687Z,77.08
2022-12-06T09:35:45.651Z,76.87
2022-12-06T09:36:45.657Z,77.39
2022-12-06T09:37:45.636Z,77.18
2022-12-06T09:38:45.628Z,77.11
2022-12-06T09:39:45.642Z,77.49
2022-12-06T09:40:45.649Z,77.91
2022-12-06T09:41:45.584Z,77.70
2022-12-06T09:42:45.586Z,77.59
2022-12-06T09:43:45.596Z,77.18
2022-12-06T09:44:45.551Z,77.08
2022-12-06T09:45:45.578Z,76.77
2022-12-06T09:46:45.586Z,76.56
2022-12-06T09:47:45.545Z,76.77
2022-12-06T09:48:49.036Z,76.46
2022-12-06T09:49:45.526Z,76.70
2022-12-06T09:50:45.509Z,77.22
2022-12-06T09:51:45.486Z,77.94
2022-12-06T09:52:45.467Z,77.63
2022-12-06T09:53:45.461Z,77.18
2022-12-06T09:54:51.091Z,78.35
2022-12-06T09:55:45.433Z,77.53
2022-12-06T09:56:45.425Z,77.22
2022-12-06T09:57:45.426Z,77.39
2022-12-06T09:58:45.425Z,78.42
2022-12-06T09:59:45.420Z,76.60
2022-12-06T10:00:45.382Z,77.11
2022-12-06T10:01:45.476Z,77.53
2022-12-06T10:02:45.430Z,77.18
2022-12-06T10:03:45.345Z,77.42
2022-12-06T10:04:45.375Z,77.53
2022-12-06T10:05:50.535Z,78.01
2022-12-06T10:06:46.353Z,78.01
2022-12-06T10:07:45.498Z,78.11
2022-12-06T10:08:45.396Z,78.21
2022-12-06T10:09:45.289Z,78.11
2022-12-06T10:10:45.295Z,77.70
2022-12-06T10:11:45.290Z,77.45
2022-12-06T10:12:45.258Z,77.70
2022-12-06T10:13:45.241Z,77.97
2022-12-06T10:14:45.236Z,77.70
2022-12-06T10:15:45.292Z,77.76
2022-12-06T10:16:45.320Z,78.28
2022-12-06T10:17:49.162Z,78.28
2022-12-06T10:18:46.183Z,78.18
2022-12-06T10:19:45.177Z,77.45
2022-12-06T10:20:45.175Z,78.18
2022-12-06T10:21:45.178Z,77.56
2022-12-06T10:22:45.193Z,77.97
2022-12-06T10:23:45.160Z,77.66
2022-12-06T10:24:45.128Z,77.15
2022-12-06T10:25:45.105Z,77.04
2022-12-06T10:26:45.106Z,76.63
2022-12-06T10:27:45.110Z,76.84
2022-12-06T10:28:45.102Z,77.04
2022-12-06T10:29:45.071Z,77.35
2022-12-06T10:30:45.056Z,77.76
2022-12-06T10:31:45.121Z,77.80
2022-12-06T10:32:45.030Z,77.87
2022-12-06T10:33:45.051Z,78.01
2022-12-06T10:34:49.137Z,77.76
2022-12-06T10:35:45.005Z,78.38
2022-12-06T10:36:44.993Z,77.76
2022-12-06T10:37:44.987Z,77.87
2022-12-06T10:38:45.020Z,77.66
2022-12-06T10:39:50.308Z,77.66
2022-12-06T10:40:46.017Z,77.97
2022-12-06T10:41:44.942Z,78.18
2022-12-06T10:42:44.924Z,77.97
2022-12-06T10:43:44.920Z,78.42
2022-12-06T10:44:44.926Z,78.11
2022-12-06T10:45:44.897Z,78.21
2022-12-06T10:46:44.926Z,78.38
2022-12-06T10:47:44.880Z,78.52
2022-12-06T10:48:44.866Z,78.38
2022-12-06T10:49:44.877Z,78.69
2022-12-06T10:50:44.833Z,78.49
2022-12-06T10:51:44.831Z,78.73
2022-12-06T10:52:44.816Z,78.59
2022-12-06T10:53:44.815Z,78.59
2022-12-06T10:54:44.842Z,78.49
2022-12-06T10:55:44.820Z,78.63
2022-12-06T10:56:44.772Z,78.69
2022-12-06T10:57:44.760Z,78.52
2022-12-06T10:58:44.755Z,78.52
2022-12-06T10:59:44.737Z,78.11
2022-12-06T11:00:44.800Z,79.04
2022-12-06T11:01:44.840Z,78.94
2022-12-06T11:02:44.714Z,78.83
2022-12-06T11:03:44.701Z,78.73
2022-12-06T11:04:44.685Z,78.83
2022-12-06T11:05:44.680Z,78.73
2022-12-06T11:06:47.618Z,78.73
2022-12-06T11:07:44.751Z,78.31
2022-12-06T11:08:44.715Z,78.63
2022-12-06T11:09:44.627Z,78.73
2022-12-06T11:10:44.655Z,79.04
2022-12-06T11:11:44.608Z,78.52
2022-12-06T11:12:44.611Z,79.04
2022-12-06T11:13:44.583Z,79.04
2022-12-06T11:14:44.596Z,79.45
2022-12-06T11:15:44.563Z,79.35
2022-12-06T11:16:44.663Z,79.35
2022-12-06T11:17:44.575Z,79.35
2022-12-06T11:18:44.541Z,79.97
2022-12-06T11:19:44.527Z,79.55
2022-12-06T11:20:44.509Z,79.45
2022-12-06T11:21:44.503Z,79.45
2022-12-06T11:22:44.483Z,79.55
2022-12-06T11:23:44.502Z,79.14
2022-12-06T11:24:47.732Z,79.86
2022-12-06T11:25:44.461Z,79.55
2022-12-06T11:26:44.497Z,79.86
2022-12-06T11:27:44.440Z,80.28
2022-12-06T11:28:44.465Z,79.97
2022-12-06T11:29:44.419Z,79.35
2022-12-06T11:30:44.408Z,79.35
2022-12-06T11:31:44.454Z,79.90
2022-12-06T11:32:44.388Z,80.32
2022-12-06T11:33:44.397Z,80.18
2022-12-06T11:34:44.375Z,80.48
2022-12-06T11:35:44.346Z,81.10
2022-12-06T11:36:44.341Z,80.69
2022-12-06T11:37:44.714Z,80.79
2022-12-06T11:38:44.343Z,80.90
2022-12-06T11:39:44.312Z,80.69
2022-12-06T11:40:44.301Z,80.69
2022-12-06T11:41:44.288Z,80.90
2022-12-06T11:42:44.297Z,80.79
2022-12-06T11:43:44.277Z,80.18
2022-12-06T11:44:49.451Z,80.48
2022-12-06T11:45:45.250Z,79.90
2022-12-06T11:46:44.276Z,79.38
2022-12-06T11:47:44.220Z,79.69
2022-12-06T11:48:44.230Z,80.62
2022-12-06T11:49:44.211Z,81.04
2022-12-06T11:50:44.221Z,81.24
2022-12-06T11:51:44.189Z,81.41
2022-12-06T11:52:44.200Z,81.14
2022-12-06T11:53:44.160Z,79.66
2022-12-06T11:54:44.152Z,79.97
2022-12-06T11:55:44.141Z,79.90
2022-12-06T11:56:44.126Z,79.69
2022-12-06T11:57:44.117Z,79.86
2022-12-06T11:58:44.154Z,79.86
2022-12-06T11:59:44.101Z,79.66
2022-12-06T12:00:44.086Z,79.35
2022-12-06T12:01:44.241Z,79.55
2022-12-06T12:02:44.234Z,79.55
2022-12-06T12:03:44.222Z,78.94
2022-12-06T12:04:44.047Z,79.25
2022-12-06T12:05:53.566Z,78.21
2022-12-06T12:06:44.049Z,78.31
2022-12-06T12:07:44.093Z,78.63
2022-12-06T12:08:43.997Z,78.42
2022-12-06T12:09:43.985Z,78.42
2022-12-06T12:10:43.970Z,78.63
2022-12-06T12:11:43.996Z,78.52
2022-12-06T12:12:43.946Z,78.52
2022-12-06T12:13:43.943Z,78.52
2022-12-06T12:14:49.519Z,77.80
2022-12-06T12:15:44.925Z,77.66
2022-12-06T12:16:44.000Z,78.21
2022-12-06T12:17:43.896Z,77.80
2022-12-06T12:18:43.890Z,78.11
2022-12-06T12:19:43.877Z,78.28
2022-12-06T12:20:43.867Z,78.11
2022-12-06T12:21:43.891Z,78.21
2022-12-06T12:22:43.844Z,77.39
2022-12-06T12:23:43.836Z,77.28
2022-12-06T12:25:44.819Z,77.80
2022-12-06T12:26:43.820Z,78.01
2022-12-06T12:27:43.814Z,78.21
2022-12-06T12:28:43.774Z,78.21
2022-12-06T12:29:43.768Z,78.11
2022-12-06T12:30:43.771Z,77.80
2022-12-06T12:31:43.804Z,77.80
2022-12-06T12:32:43.761Z,78.83
2022-12-06T12:33:43.722Z,78.31
2022-12-06T12:34:43.716Z,78.31
2022-12-06T12:35:43.725Z,77.70
2022-12-06T12:36:43.692Z,78.11
2022-12-06T12:37:43.688Z,78.31
2022-12-06T12:38:43.699Z,78.52
2022-12-06T12:39:43.656Z,78.25
2022-12-06T12:40:43.645Z,78.21
2022-12-06T12:41:43.639Z,78.21
2022-12-06T12:42:43.630Z,78.52
2022-12-06T12:43:43.664Z,78.52
2022-12-06T12:44:43.600Z,78.42
2022-12-06T12:45:43.614Z,78.01
2022-12-06T12:46:43.603Z,78.77
2022-12-06T12:47:43.569Z,78.14
2022-12-06T12:48:43.588Z,78.25
2022-12-06T12:49:43.552Z,78.25
2022-12-06T12:50:43.542Z,78.87
2022-12-06T12:51:47.913Z,79.08
2022-12-06T12:52:43.522Z,79.73
2022-12-06T12:53:43.541Z,79.38
2022-12-06T12:54:43.492Z,79.59